• Join FlightAware (Why Join?)
  • Login
  • US Flag 
10:32AM EDT


 

Airport Tracker/Info


-or-


 

Live Flight TrackerFlight Track Log ✈ FFT907 ✈ 01-Sep-2013 ✈ KMDW - KDEN

Flight Track Log - Related Links

Times and Time Zones

All times are in EDT time to prevent confusion due to time zone crossing. See the FFT907 flight status page for this flight to view local times or setup timezone preferences in your user account.

Time Position Orientation Groundspeed Altitude Reporting Facility
EDT Latitude Longitude Course Direction KTS MPH feet Rate Location/Type
01:47PM 41.8000 -87.7833 261° West 159 183 2,200  Level Chicago TRACON
01:48PM 41.7939 -87.8381 261° West 221 254 3,000 2,040 Climbing Chicago Center
01:49PM 41.7675 -87.9319 249° West 233 268 6,200 2,820 Climbing Chicago Center
01:50PM 41.8072 -88.0039 307° West 246 283 8,900 2,400 Climbing Chicago Center
01:51PM 41.8444 -88.0792 304° West 248 285 11,200 1,500 Climbing Chicago Center
01:52PM 41.8417 -88.1758 268° West 264 304 12,100 1,500 Climbing Chicago Center
01:53PM 41.8308 -88.2850 262° West 293 337 14,300 2,100 Climbing Chicago Center
01:54PM 41.8153 -88.4242 262° West 316 364 16,500 2,040 Climbing Chicago Center
01:55PM 41.7997 -88.5444 260° West 327 376 18,600 1,800 Climbing Chicago Center
01:56PM 41.7853 -88.6697 261° West 340 391 20,300 1,620 Climbing Chicago Center
01:57PM 41.7725 -88.7972 262° West 347 399 22,000 1,620 Climbing Chicago Center
01:58PM 41.7589 -88.9283 262° West 355 409 23,700 1,680 Climbing Chicago Center
01:59PM 41.7586 -89.0886 270° West 365 420 25,500 1,260 Climbing Chicago Center
02:00PM 41.7639 -89.2294 273° West 377 434 26,400 1,080 Climbing Chicago Center
02:01PM 41.7703 -89.3728 273° West 388 447 27,800 1,260 Climbing Chicago Center
02:02PM 41.7750 -89.5200 273° West 396 456 29,100 1,200 Climbing Chicago Center
02:03PM 41.7811 -89.6700 273° West 396 456 30,300 1,020 Climbing Chicago Center
02:04PM 41.7894 -89.8189 274° West 401 461 31,300 1,140 Climbing Chicago Center
02:05PM 41.7983 -89.9667 275° West 400 460 32,700 1,260 Climbing Chicago Center
02:06PM 41.7997 -90.1439 271° West 398 458 33,900 1,200 Climbing Chicago Center
02:07PM 41.7906 -90.2900 265° West 395 455 35,200 1,020 Climbing Chicago Center
02:08PM 41.7825 -90.4353 266° West 395 455 36,000 360 Climbing Chicago Center
02:09PM 41.7739 -90.5753 265° West 385 443 36,000  Level Chicago Center
02:10PM 41.7661 -90.7222 266° West 381 438 36,000  Level Chicago Center
02:11PM 41.7569 -90.8636 265° West 384 442 36,000  Level Chicago Center
02:12PM 41.7489 -91.0036 266° West 382 440 36,000  Level Chicago Center
02:13PM 41.7397 -91.1469 265° West 386 444 36,000  Level Chicago Center
02:14PM 41.7294 -91.3161 265° West 384 442 36,000  Level Chicago Center
02:15PM 41.7194 -91.4592 265° West 388 447 36,000  Level Chicago Center
02:16PM 41.7106 -91.6022 265° West 388 447 36,000  Level Chicago Center
02:17PM 41.7008 -91.7461 265° West 391 450 36,000  Level Chicago Center
02:19PM 41.6911 -91.8908 265° West 393 452 36,000  Level Chicago Center
02:20PM 41.6811 -92.0358 265° West 393 452 36,000  Level Chicago Center
02:21PM 41.6683 -92.2075 264° West 391 450 36,000  Level Chicago Center
02:22PM 41.6578 -92.3522 264° West 392 451 36,000  Level Chicago Center
02:23PM 41.6481 -92.4989 265° West 395 455 36,000  Level Chicago Center
02:24PM 41.6361 -92.6450 264° West 398 458 36,000  Level Chicago Center
02:25PM 41.6244 -92.8044 264° West 400 460 36,000  Level Chicago Center
02:26PM 41.6117 -92.9817 265° West 402 463 36,000  Level Minneapolis Center
02:27PM 41.5997 -93.1281 264° West 401 461 36,000  Level Minneapolis Center
02:28PM 41.5875 -93.2722 264° West 399 459 36,000  Level Minneapolis Center
02:29PM 41.5731 -93.4472 264° West 399 459 36,000  Level Minneapolis Center
02:30PM 41.5608 -93.5933 264° West 399 459 36,000  Level Minneapolis Center
02:31PM 41.5478 -93.7406 263° West 401 461 36,000  Level Minneapolis Center
02:32PM 41.5375 -93.8853 265° West 401 461 36,000  Level Minneapolis Center
02:33PM 41.5256 -94.0328 264° West 402 463 36,000  Level Minneapolis Center
02:34PM 41.5086 -94.2128 263° West 410 472 36,000  Level Minneapolis Center
02:35PM 41.4933 -94.3714 263° West 414 476 36,000  Level Minneapolis Center
02:36PM 41.4797 -94.5217 263° West 410 472 36,000  Level Minneapolis Center
02:37PM 41.4656 -94.6717 263° West 409 471 36,000  Level Minneapolis Center
02:38PM 41.4519 -94.8231 263° West 412 474 36,000  Level Minneapolis Center
02:39PM 41.4378 -94.9736 263° West 410 472 36,000  Level Minneapolis Center
02:40PM 41.4242 -95.1239 263° West 408 470 36,000  Level Minneapolis Center
02:41PM 41.4086 -95.2733 262° West 408 470 36,000  Level Minneapolis Center
02:42PM 41.3897 -95.4533 262° West 408 470 36,000  Level Minneapolis Center
02:43PM 41.3739 -95.6044 262° West 412 474 36,000  Level Minneapolis Center
02:44PM 41.3600 -95.7503 263° West 414 476 36,000  Level Minneapolis Center
02:45PM 41.3436 -95.9036 262° West 418 481 36,000  Level Minneapolis Center
02:47PM 41.3281 -96.0544 262° West 413 475 36,000  Level Minneapolis Center
02:48PM 41.3092 -96.2361 262° West 413 475 36,000  Level Minneapolis Center
02:49PM 41.2931 -96.3797 262° West 418 481 36,000  Level Minneapolis Center
02:50PM 41.2761 -96.5331 262° West 420 483 36,000  Level Minneapolis Center
02:51PM 41.2594 -96.6853 262° West 417 480 36,000  Level Minneapolis Center
02:52PM 41.2414 -96.8372 261° West 418 481 36,000  Level Minneapolis Center
02:53PM 41.2217 -97.0217 262° West 422 486 36,000  Level Minneapolis Center
02:54PM 41.2025 -97.1747 261° West 422 486 36,000  Level Minneapolis Center
02:55PM 41.1844 -97.3267 261° West 419 482 36,000  Level Minneapolis Center
02:56PM 41.1661 -97.4911 262° West 420 483 36,000  Level Minneapolis Center
02:57PM 41.1475 -97.6433 261° West 418 481 36,000  Level Minneapolis Center
02:58PM 41.1294 -97.7931 261° West 414 476 36,000  Level Minneapolis Center
02:59PM 41.1108 -97.9456 261° West 417 480 36,000  Level Minneapolis Center
03:00PM 41.0925 -98.0978 261° West 418 481 36,000  Level Minneapolis Center
03:01PM 41.0728 -98.2506 260° West 419 482 36,000  Level Minneapolis Center
03:02PM 41.0544 -98.4036 261° West 419 482 36,000  Level Minneapolis Center
03:03PM 41.0364 -98.5722 262° West 417 480 36,000  Level Minneapolis Center
03:04PM 41.0178 -98.7233 261° West 417 480 36,000  Level Minneapolis Center
03:05PM 40.9997 -98.8778 261° West 422 486 36,000  Level Minneapolis Center
03:06PM 40.9844 -99.0308 263° West 422 486 36,000  Level Minneapolis Center
03:07PM 40.9647 -99.2081 262° West 419 482 36,100 60 Climbing Minneapolis Center
03:08PM 40.9578 -99.2686 261° West 421 484 36,100 -120 Level Denver Center
03:09PM 40.9400 -99.4208 261° West 418 481 36,000 -60 Descending Denver Center
03:10PM 40.9219 -99.5706 261° West 415 478 36,000  Level Denver Center
03:11PM 40.9039 -99.7211 261° West 414 476 36,000  Level Denver Center
03:12PM 40.8819 -99.9017 261° West 417 480 36,000  Level Denver Center
03:13PM 40.8647 -100.0458 261° West 415 478 36,000  Level Denver Center
03:14PM 40.8433 -100.2128 260° West 413 475 36,000  Level Denver Center
03:15PM 40.8253 -100.3567 261° West 414 476 36,000  Level Denver Center
03:16PM 40.8064 -100.4989 260° West 412 474 36,000  Level Denver Center
03:17PM 40.7844 -100.6650 260° West 416 479 36,000  Level Denver Center
03:18PM 40.7572 -100.8222 257° West 436 502 36,100  Climbing Denver Center
03:19PM 40.7350 -100.9672 259° West 418 481 36,100 -60 Level Denver Center
03:20PM 40.7069 -101.1347 258° West 415 478 36,000 -60 Descending Denver Center
03:21PM 40.6825 -101.2769 257° West 416 479 36,000  Level Denver Center
03:22PM 40.6575 -101.4192 257° West 417 480 36,000  Level Denver Center
03:23PM 40.6286 -101.5858 257° West 419 482 36,000  Level Denver Center
03:24PM 40.6025 -101.7303 257° West 423 487 36,000  Level Denver Center
03:25PM 40.5714 -101.8989 256° West 426 490 36,000  Level Denver Center
03:26PM 40.5444 -102.0433 256° West 426 490 36,000  Level Denver Center
03:27PM 40.5136 -102.2111 256° West 423 487 36,000  Level Denver Center
03:28PM 40.4864 -102.3542 256° West 422 486 36,000 -60 Level Denver Center
03:29PM 40.4606 -102.4983 257° West 424 488 35,900 -1,320 Descending Denver Center
03:30PM 40.4289 -102.6636 256° West 419 482 33,400 -2,580 Descending Denver Center
03:31PM 40.4022 -102.8122 257° West 424 488 30,700 -2,400 Descending Denver Center
03:32PM 40.3725 -102.9594 255° West 419 482 28,500 -2,160 Descending Denver Center
03:33PM 40.3467 -103.1022 257° West 405 466 26,300 -2,160 Descending Denver Center
03:34PM 40.3192 -103.2406 255° West 396 456 24,100 -2,160 Descending Denver Center
03:35PM 40.2936 -103.3775 256° West 388 447 21,900 -2,040 Descending Denver Center
03:36PM 40.2611 -103.5381 255° West 382 440 20,000 -1,500 Descending Denver Center
03:38PM 40.2356 -103.6697 256° West 376 433 18,600 -1,320 Descending Denver Center
03:39PM 40.2075 -103.8233 257° West 359 413 17,100 -1,320 Descending Denver Center
03:40PM 40.2075 -103.9433 270° West 312 359 15,900 -1,080 Descending Denver Center
03:41PM 40.2292 -104.0475 285° West 298 343 15,000 -900 Descending Denver Center
03:42PM 40.2661 -104.1317 300° West 270 311 14,100 -540 Descending Denver Center
03:43PM 40.2828 -104.2300 283° West 266 306 14,000 -540 Descending Denver Center
03:44PM 40.2811 -104.3225 269° West 257 296 13,100 -960 Descending Denver Center
03:45PM 40.2656 -104.4069 256° West 244 281 12,100 -960 Descending Denver Center
03:46PM 40.2272 -104.4886 238° Southwest 244 281 11,200 -1,020 Descending Denver Center
03:47PM 40.1719 -104.5392 215° Southwest 241 277 10,100 -1,080 Descending Denver Center
03:48PM 40.1181 -104.5883 215° Southwest 238 274 9,100 -1,020 Descending Denver Center
03:49PM 40.0569 -104.6339 210° Southwest 235 270 8,100 -840 Descending Denver Center
03:50PM 40.0139 -104.6636 208° Southwest 230 265 7,400 -840 Descending Denver Center
03:51PM 39.9492 -104.6867 195° South 197 227 6,400 -900 Descending Denver Center
03:52PM 39.9056 -104.6869 180° South 147 169 5,600 -780 Descending Denver Center
03:54PM 39.8617 -104.6732 190° South  Level Estimated
04:01PM 39.8617 -104.6732 190° South  Level Estimated
04:02PM 39.8617 -104.6732 190° South  Level Estimated